createdAt,value
2019-02-17T00:00:47.696Z,15.77
2019-02-17T00:03:16.839Z,13.70
2019-02-17T00:05:45.906Z,12.80
2019-02-17T00:08:15.001Z,14.43
2019-02-17T00:10:44.074Z,13.30
2019-02-17T00:13:13.393Z,12.50
2019-02-17T00:15:42.563Z,14.07
2019-02-17T00:18:11.874Z,12.37
2019-02-17T00:20:40.969Z,12.80
2019-02-17T00:23:10.055Z,13.80
2019-02-17T00:25:39.650Z,14.90
2019-02-17T00:28:08.979Z,13.80
2019-02-17T00:30:38.070Z,13.13
2019-02-17T00:33:07.243Z,14.87
2019-02-17T00:35:36.327Z,14.20
2019-02-17T00:38:05.458Z,14.87
2019-02-17T00:40:34.548Z,14.53
2019-02-17T00:43:03.612Z,15.13
2019-02-17T00:45:32.981Z,15.83
2019-02-17T00:48:02.062Z,14.93
2019-02-17T00:50:31.394Z,16.83
2019-02-17T00:53:00.446Z,18.73
2019-02-17T00:55:29.541Z,17.70
2019-02-17T00:57:58.536Z,15.10
2019-02-17T01:00:27.710Z,16.50
2019-02-17T01:02:57.040Z,18.53
2019-02-17T01:05:26.351Z,17.70
2019-02-17T01:07:55.574Z,17.97
2019-02-17T01:10:24.688Z,22.10
2019-02-17T01:12:54.248Z,21.13
2019-02-17T01:15:23.867Z,21.80
2019-02-17T01:17:52.950Z,22.33
2019-02-17T01:20:22.026Z,25.00
2019-02-17T01:22:51.134Z,22.33
2019-02-17T01:25:20.466Z,24.13
2019-02-17T01:27:49.872Z,22.07
2019-02-17T01:30:18.932Z,22.97
2019-02-17T01:32:47.992Z,21.67
2019-02-17T01:35:17.069Z,19.63
2019-02-17T01:37:46.153Z,22.13
2019-02-17T01:40:15.233Z,21.40
2019-02-17T01:42:44.231Z,22.30
2019-02-17T01:45:13.469Z,21.90
2019-02-17T01:47:42.554Z,23.23
2019-02-17T01:50:11.893Z,23.60
2019-02-17T01:52:40.978Z,22.70
2019-02-17T01:55:10.057Z,24.03
2019-02-17T01:57:39.150Z,23.93
2019-02-17T02:00:10.266Z,22.93
2019-02-17T02:02:39.631Z,23.17
2019-02-17T02:05:09.138Z,20.20
2019-02-17T02:07:38.193Z,23.20
2019-02-17T02:10:07.535Z,22.60
2019-02-17T02:12:36.616Z,21.40
2019-02-17T02:15:06.313Z,20.53
2019-02-17T02:17:35.374Z,19.33
2019-02-17T02:20:05.114Z,17.33
2019-02-17T02:22:34.198Z,17.30
2019-02-17T02:25:03.327Z,15.53
2019-02-17T02:27:32.409Z,15.60
2019-02-17T02:30:01.486Z,16.03
2019-02-17T02:32:30.641Z,13.60
2019-02-17T02:34:59.705Z,15.00
2019-02-17T02:37:29.053Z,13.00
2019-02-17T02:39:58.698Z,13.90
2019-02-17T02:42:27.784Z,14.53
2019-02-17T02:44:56.833Z,14.13
2019-02-17T02:47:26.256Z,14.33
2019-02-17T02:49:55.326Z,12.47
2019-02-17T02:52:24.666Z,13.53
2019-02-17T02:54:53.791Z,13.70
2019-02-17T02:57:23.422Z,15.00
2019-02-17T02:59:52.869Z,15.17
2019-02-17T03:02:22.318Z,14.53
2019-02-17T03:04:51.433Z,15.47
2019-02-17T03:07:22.094Z,17.03
2019-02-17T03:09:51.236Z,17.80
2019-02-17T03:12:20.411Z,17.40
2019-02-17T03:14:49.914Z,18.37
2019-02-17T03:17:19.090Z,17.73
2019-02-17T03:19:48.245Z,16.73
2019-02-17T03:22:17.436Z,17.00
2019-02-17T03:24:46.555Z,18.47
2019-02-17T03:27:15.770Z,18.70
2019-02-17T03:29:45.188Z,19.23
2019-02-17T03:32:14.401Z,20.20
2019-02-17T03:34:44.181Z,19.33
2019-02-17T03:37:13.567Z,20.33
2019-02-17T03:39:43.126Z,17.40
2019-02-17T03:42:12.936Z,17.90
2019-02-17T03:44:42.070Z,18.93
2019-02-17T03:47:11.482Z,20.23
2019-02-17T03:49:40.601Z,19.47
2019-02-17T03:52:10.001Z,18.43
2019-02-17T03:54:39.127Z,18.57
2019-02-17T03:57:08.851Z,19.27
2019-02-17T03:59:38.560Z,17.83
2019-02-17T04:02:07.938Z,19.50
2019-02-17T04:04:37.064Z,18.70
2019-02-17T04:07:06.455Z,17.70
2019-02-17T04:09:35.634Z,19.67
2019-02-17T04:12:04.786Z,18.00
2019-02-17T04:14:33.914Z,17.40
2019-02-17T04:17:03.302Z,18.33
2019-02-17T04:19:32.718Z,19.00
2019-02-17T04:22:01.867Z,18.00
2019-02-17T04:24:31.062Z,18.27
2019-02-17T04:27:00.175Z,17.93
2019-02-17T04:29:29.326Z,16.53
2019-02-17T04:31:58.466Z,17.07
2019-02-17T04:34:27.662Z,16.70
2019-02-17T04:36:56.791Z,16.47
2019-02-17T04:39:25.950Z,17.30
2019-02-17T04:41:55.394Z,15.23
2019-02-17T04:44:24.574Z,16.70
2019-02-17T04:46:53.968Z,14.27
2019-02-17T04:49:23.116Z,15.37
2019-02-17T04:51:52.508Z,15.87
2019-02-17T04:54:21.684Z,15.77
2019-02-17T04:56:50.808Z,15.40
2019-02-17T04:59:20.214Z,16.13
2019-02-17T05:01:49.580Z,16.00
2019-02-17T05:04:18.713Z,14.50
2019-02-17T05:06:48.105Z,16.73
2019-02-17T05:09:17.521Z,15.90
2019-02-17T05:11:46.659Z,15.17
2019-02-17T05:14:15.866Z,16.00
2019-02-17T05:16:44.986Z,15.37
2019-02-17T05:19:14.129Z,16.30
2019-02-17T05:21:43.290Z,16.77
2019-02-17T05:24:12.441Z,18.37
2019-02-17T05:26:41.553Z,20.13
2019-02-17T05:29:10.686Z,17.13
2019-02-17T05:31:39.859Z,17.90
2019-02-17T05:34:09.035Z,18.17
2019-02-17T05:36:38.171Z,17.73
2019-02-17T05:39:07.323Z,18.10
2019-02-17T05:41:36.713Z,13.70
2019-02-17T05:44:05.889Z,14.93
2019-02-17T05:46:35.315Z,14.17
2019-02-17T05:49:04.461Z,14.20
2019-02-17T05:51:33.880Z,14.97
2019-02-17T05:54:03.379Z,15.17
2019-02-17T05:56:32.627Z,13.70
2019-02-17T05:59:01.804Z,13.57
2019-02-17T06:01:31.328Z,13.20
2019-02-17T06:04:00.438Z,13.90
2019-02-17T06:06:29.582Z,12.30
2019-02-17T06:08:59.018Z,15.20
2019-02-17T06:11:28.275Z,14.37
2019-02-17T06:13:58.075Z,14.43
2019-02-17T06:16:27.223Z,14.50
2019-02-17T06:18:56.751Z,15.83
2019-02-17T06:21:25.966Z,14.80
2019-02-17T06:23:55.366Z,16.00
2019-02-17T06:26:24.548Z,14.47
2019-02-17T06:28:53.966Z,14.17
2019-02-17T06:31:23.426Z,13.47
2019-02-17T06:33:52.828Z,14.13
2019-02-17T06:36:22.045Z,14.73
2019-02-17T06:38:51.885Z,15.17
2019-02-17T06:41:21.118Z,15.23
2019-02-17T06:43:50.887Z,13.83
2019-02-17T06:46:24.453Z,13.97
2019-02-17T06:48:53.585Z,15.73
2019-02-17T06:51:23.014Z,15.33
2019-02-17T06:53:52.120Z,14.03
2019-02-17T06:56:31.588Z,15.43
2019-02-17T06:59:01.719Z,16.30
2019-02-17T07:01:30.858Z,14.80
2019-02-17T07:04:00.253Z,14.10
2019-02-17T07:06:32.322Z,15.40
2019-02-17T07:09:04.779Z,15.80
2019-02-17T07:11:33.565Z,17.63
2019-02-17T07:14:02.695Z,18.50
2019-02-17T07:16:32.384Z,16.57
2019-02-17T07:19:01.814Z,16.97
2019-02-17T07:21:30.930Z,18.20
2019-02-17T07:24:00.155Z,17.33
2019-02-17T07:26:29.556Z,14.97
2019-02-17T07:28:59.046Z,17.10
2019-02-17T07:31:34.977Z,17.13
2019-02-17T07:33:59.402Z,21.30
2019-02-17T07:36:28.819Z,24.87
2019-02-17T07:38:58.007Z,24.40
2019-02-17T07:41:27.416Z,24.80
2019-02-17T07:43:56.611Z,25.47
2019-02-17T07:46:25.858Z,25.90
2019-02-17T07:48:55.469Z,24.43
2019-02-17T07:51:25.027Z,23.67
2019-02-17T07:53:54.564Z,24.93
2019-02-17T07:56:24.078Z,22.20
2019-02-17T07:58:53.494Z,21.27
2019-02-17T08:01:23.310Z,20.73
2019-02-17T08:03:52.775Z,21.03
2019-02-17T08:06:21.955Z,20.23
2019-02-17T08:08:51.177Z,20.10
2019-02-17T08:11:20.982Z,22.13
2019-02-17T08:13:50.523Z,22.00
2019-02-17T08:16:19.715Z,23.70
2019-02-17T08:18:48.925Z,21.93
2019-02-17T08:21:18.384Z,23.00
2019-02-17T08:23:47.802Z,23.23
2019-02-17T08:26:17.193Z,22.70
2019-02-17T08:28:49.418Z,25.10
2019-02-17T08:31:18.627Z,22.87
2019-02-17T08:33:47.734Z,23.20
2019-02-17T08:36:16.878Z,21.03
2019-02-17T08:38:46.003Z,23.47
2019-02-17T08:41:15.244Z,22.60
2019-02-17T08:43:44.628Z,22.40
2019-02-17T08:46:13.761Z,23.90
2019-02-17T08:48:43.293Z,24.23
2019-02-17T08:51:12.993Z,23.00
2019-02-17T08:53:42.719Z,23.03
2019-02-17T08:56:12.237Z,22.53
2019-02-17T08:58:41.383Z,25.03
2019-02-17T09:01:10.952Z,24.60
2019-02-17T09:03:40.731Z,23.80
2019-02-17T09:06:10.584Z,23.90
2019-02-17T09:08:40.074Z,25.40
2019-02-17T09:11:09.194Z,29.33
2019-02-17T09:13:39.569Z,23.00
2019-02-17T09:16:08.678Z,24.87
2019-02-17T09:18:37.886Z,23.83
2019-02-17T09:21:07.261Z,30.00
2019-02-17T09:23:36.423Z,37.27
2019-02-17T09:26:05.534Z,29.37
2019-02-17T09:28:34.915Z,29.33
2019-02-17T09:31:04.307Z,26.10
2019-02-17T09:33:33.890Z,27.33
2019-02-17T09:36:03.250Z,26.33
2019-02-17T09:38:32.351Z,27.70
2019-02-17T09:41:01.746Z,26.10
2019-02-17T09:43:30.891Z,25.87
2019-02-17T09:46:00.274Z,27.57
2019-02-17T09:48:29.682Z,26.70
2019-02-17T09:50:58.829Z,27.90
2019-02-17T09:53:27.917Z,26.40
2019-02-17T09:55:58.018Z,26.97
2019-02-17T09:58:27.426Z,26.00
2019-02-17T10:00:56.566Z,27.57
2019-02-17T10:03:25.801Z,28.77
2019-02-17T10:05:55.163Z,29.00
2019-02-17T10:08:24.317Z,28.17
2019-02-17T10:10:53.430Z,28.60
2019-02-17T10:13:22.782Z,27.23
2019-02-17T10:15:52.241Z,28.73
2019-02-17T10:18:21.642Z,28.13
2019-02-17T10:20:51.003Z,28.13
2019-02-17T10:23:20.094Z,29.47
2019-02-17T10:25:49.228Z,29.10
2019-02-17T10:28:18.315Z,30.50
2019-02-17T10:30:47.996Z,32.17
2019-02-17T10:33:17.298Z,30.00
2019-02-17T10:35:46.402Z,29.43
2019-02-17T10:38:15.559Z,28.07
2019-02-17T10:40:44.979Z,28.67
2019-02-17T10:43:37.916Z,28.90
2019-02-17T10:45:46.596Z,28.43
2019-02-17T10:48:16.003Z,28.70
2019-02-17T10:50:45.119Z,28.83
2019-02-17T10:53:14.501Z,27.97
2019-02-17T10:55:43.674Z,28.53
2019-02-17T10:58:12.890Z,29.90
2019-02-17T11:00:42.474Z,30.53
2019-02-17T11:03:12.155Z,29.13
2019-02-17T11:05:41.814Z,28.30
2019-02-17T11:08:11.978Z,27.80
2019-02-17T11:10:41.083Z,27.00
2019-02-17T11:13:10.511Z,27.93
2019-02-17T11:15:39.989Z,28.23
2019-02-17T11:18:09.086Z,26.70
2019-02-17T11:20:38.238Z,28.27
2019-02-17T11:23:07.381Z,28.13
2019-02-17T11:25:38.171Z,28.57
2019-02-17T11:28:07.300Z,26.40
2019-02-17T11:30:37.113Z,33.00
2019-02-17T11:33:06.584Z,25.63
2019-02-17T11:35:36.027Z,27.10
2019-02-17T11:38:05.482Z,23.97
2019-02-17T11:40:35.150Z,24.57
2019-02-17T11:43:04.445Z,24.50
2019-02-17T11:45:33.670Z,24.30
2019-02-17T11:48:03.395Z,24.73
2019-02-17T11:50:32.691Z,25.00
2019-02-17T11:53:02.389Z,24.90
2019-02-17T11:55:31.945Z,24.10
2019-02-17T11:58:01.570Z,23.97
2019-02-17T12:00:31.017Z,22.70
2019-02-17T12:03:07.552Z,23.77
2019-02-17T12:05:31.237Z,24.40
2019-02-17T12:08:00.333Z,20.67
2019-02-17T12:10:29.474Z,23.23
2019-02-17T12:12:58.580Z,22.43
2019-02-17T12:15:27.962Z,22.50
2019-02-17T12:17:59.166Z,23.70
2019-02-17T12:20:50.161Z,23.00
2019-02-17T12:23:53.794Z,24.20
2019-02-17T12:26:36.063Z,23.83
2019-02-17T12:29:10.529Z,25.00
2019-02-17T12:31:40.258Z,23.00
2019-02-17T12:34:09.403Z,25.23
2019-02-17T12:36:38.775Z,23.90
2019-02-17T12:39:09.755Z,24.40
2019-02-17T12:41:39.131Z,25.60
2019-02-17T12:44:08.293Z,23.17
2019-02-17T12:46:37.690Z,24.47
2019-02-17T12:49:06.821Z,25.97
2019-02-17T12:51:36.182Z,26.17
2019-02-17T12:54:05.289Z,25.87
2019-02-17T12:56:34.793Z,26.30
2019-02-17T12:59:03.979Z,23.50
2019-02-17T13:01:33.123Z,22.87
2019-02-17T13:04:02.560Z,24.40
2019-02-17T13:06:31.726Z,24.33
2019-02-17T13:09:07.880Z,24.70
2019-02-17T13:11:37.286Z,24.80
2019-02-17T13:14:06.927Z,24.67
2019-02-17T13:16:36.014Z,22.80
2019-02-17T13:19:05.716Z,27.13
2019-02-17T13:21:34.864Z,24.60
2019-02-17T13:24:04.048Z,23.03
2019-02-17T13:26:33.631Z,22.67
2019-02-17T13:29:03.347Z,24.70
2019-02-17T13:31:32.524Z,23.90
2019-02-17T13:34:01.786Z,24.13
2019-02-17T13:36:31.453Z,23.30
2019-02-17T13:39:01.190Z,25.83
2019-02-17T13:41:30.370Z,24.07
2019-02-17T13:44:00.807Z,23.70
2019-02-17T13:46:29.973Z,24.97
2019-02-17T13:48:59.359Z,23.60
2019-02-17T13:51:29.029Z,23.30
2019-02-17T13:53:58.125Z,23.90
2019-02-17T13:56:27.266Z,21.83
2019-02-17T13:58:56.386Z,21.67
2019-02-17T14:01:25.589Z,21.30
2019-02-17T14:03:55.300Z,21.73
2019-02-17T14:06:33.632Z,21.17
2019-02-17T14:09:07.897Z,20.80
2019-02-17T14:11:37.045Z,20.17
2019-02-17T14:14:06.160Z,20.47
2019-02-17T14:16:35.279Z,20.83
2019-02-17T14:19:04.684Z,19.67
2019-02-17T14:21:33.830Z,20.30
2019-02-17T14:24:02.955Z,19.90
2019-02-17T14:26:32.327Z,20.07
2019-02-17T14:29:01.705Z,20.40
2019-02-17T14:31:30.851Z,20.40
2019-02-17T14:33:59.951Z,20.50
2019-02-17T14:36:29.057Z,19.87
2019-02-17T14:38:58.498Z,18.67
2019-02-17T14:41:27.882Z,19.33
2019-02-17T14:43:57.026Z,18.30
2019-02-17T14:46:26.329Z,19.13
2019-02-17T14:48:55.451Z,18.30
2019-02-17T14:51:24.834Z,20.07
2019-02-17T14:53:54.219Z,17.13
2019-02-17T14:56:23.650Z,18.60
2019-02-17T14:58:53.534Z,18.00
2019-02-17T15:01:23.187Z,20.27
2019-02-17T15:03:53.427Z,21.17
2019-02-17T15:06:22.541Z,19.90
2019-02-17T15:08:51.686Z,18.10
2019-02-17T15:11:20.818Z,20.27
2019-02-17T15:13:50.481Z,23.40
2019-02-17T15:16:19.621Z,24.43
2019-02-17T15:18:49.118Z,20.33
2019-02-17T15:21:18.513Z,19.47
2019-02-17T15:23:47.678Z,20.30
2019-02-17T15:26:16.934Z,19.10
2019-02-17T15:28:51.283Z,20.00
2019-02-17T15:31:16.975Z,20.33
2019-02-17T15:33:46.097Z,19.40
2019-02-17T15:36:15.490Z,21.00
2019-02-17T15:38:44.604Z,19.87
2019-02-17T15:41:13.719Z,21.03
2019-02-17T15:43:42.850Z,19.90
2019-02-17T15:46:13.250Z,21.87
2019-02-17T15:48:42.784Z,22.27
2019-02-17T15:51:12.165Z,22.53
2019-02-17T15:53:41.295Z,22.73
2019-02-17T15:56:10.706Z,59.53
2019-02-17T15:58:40.110Z,59.60
2019-02-17T16:01:09.323Z,38.80
2019-02-17T16:03:38.991Z,24.53
2019-02-17T16:06:08.662Z,51.53
2019-02-17T16:08:38.019Z,35.13
2019-02-17T16:11:07.213Z,25.90
2019-02-17T16:13:37.098Z,23.50
2019-02-17T16:16:06.569Z,27.90
2019-02-17T16:18:35.834Z,41.60
2019-02-17T16:21:05.223Z,51.77
2019-02-17T16:23:34.662Z,32.83
2019-02-17T16:26:03.805Z,25.37
2019-02-17T16:28:32.962Z,25.57
2019-02-17T16:31:02.367Z,21.03
2019-02-17T16:33:31.603Z,23.03
2019-02-17T16:36:00.714Z,21.07
2019-02-17T16:38:29.857Z,22.70
2019-02-17T16:40:58.998Z,22.63
2019-02-17T16:43:28.778Z,23.70
2019-02-17T16:45:58.163Z,21.83
2019-02-17T16:48:27.528Z,21.10
2019-02-17T16:50:56.605Z,24.07
2019-02-17T16:53:25.738Z,26.20
2019-02-17T16:55:55.411Z,25.10
2019-02-17T16:58:24.761Z,23.80
2019-02-17T17:00:54.230Z,26.07
2019-02-17T17:03:23.389Z,23.67
2019-02-17T17:05:52.778Z,24.00
2019-02-17T17:08:22.203Z,22.17
2019-02-17T17:10:51.406Z,23.57
2019-02-17T17:13:20.802Z,63.43
2019-02-17T17:15:50.264Z,29.73
2019-02-17T17:18:19.423Z,23.77
2019-02-17T17:20:48.559Z,22.90
2019-02-17T17:23:18.003Z,24.13
2019-02-17T17:25:47.610Z,23.80
2019-02-17T17:28:16.733Z,22.03
2019-02-17T17:30:46.149Z,24.00
2019-02-17T17:33:15.543Z,25.37
2019-02-17T17:35:45.105Z,24.53
2019-02-17T17:38:14.459Z,31.50
2019-02-17T17:40:43.942Z,32.70
2019-02-17T17:43:13.116Z,36.83
2019-02-17T17:45:42.236Z,35.13
2019-02-17T17:48:11.397Z,33.70
2019-02-17T17:50:40.509Z,26.33
2019-02-17T17:53:10.197Z,25.77
2019-02-17T17:55:39.708Z,23.63
2019-02-17T17:58:09.526Z,22.10
2019-02-17T18:00:39.085Z,23.57
2019-02-17T18:03:08.306Z,22.43
2019-02-17T18:05:37.738Z,22.93
2019-02-17T18:08:07.231Z,21.73
2019-02-17T18:10:36.809Z,22.97
2019-02-17T18:13:06.334Z,23.13
2019-02-17T18:15:35.473Z,20.97
2019-02-17T18:18:05.450Z,21.00
2019-02-17T18:20:34.604Z,21.67
2019-02-17T18:23:03.815Z,22.13
2019-02-17T18:25:33.526Z,26.33
2019-02-17T18:28:02.876Z,26.20
2019-02-17T18:30:32.090Z,22.00
2019-02-17T18:33:01.454Z,22.33
2019-02-17T18:35:30.575Z,23.23
2019-02-17T18:38:01.082Z,22.70
2019-02-17T18:40:30.427Z,20.83
2019-02-17T18:42:59.623Z,18.00
2019-02-17T18:45:28.828Z,18.60
2019-02-17T18:47:58.203Z,18.43
2019-02-17T18:50:27.578Z,18.07
2019-02-17T18:52:56.998Z,18.37
2019-02-17T18:55:26.375Z,18.13
2019-02-17T18:57:55.605Z,17.80
2019-02-17T19:00:25.295Z,17.13
2019-02-17T19:02:54.417Z,18.47
2019-02-17T19:05:31.636Z,18.60
2019-02-17T19:07:54.815Z,18.23
2019-02-17T19:10:24.272Z,18.30
2019-02-17T19:12:53.528Z,17.67
2019-02-17T19:15:22.896Z,16.27
2019-02-17T19:17:52.052Z,16.67
2019-02-17T19:20:21.242Z,17.77
2019-02-17T19:22:50.507Z,17.30
2019-02-17T19:25:19.639Z,17.70
2019-02-17T19:27:49.314Z,18.80
2019-02-17T19:30:18.466Z,20.10
2019-02-17T19:32:47.899Z,20.33
2019-02-17T19:35:17.277Z,21.37
2019-02-17T19:37:46.669Z,19.53
2019-02-17T19:40:16.057Z,17.97
2019-02-17T19:42:45.513Z,16.00
2019-02-17T19:45:14.959Z,17.40
2019-02-17T19:47:44.091Z,18.53
2019-02-17T19:50:13.578Z,17.17
2019-02-17T19:52:42.746Z,17.90
2019-02-17T19:55:11.967Z,16.93
2019-02-17T19:57:41.328Z,18.03
2019-02-17T20:00:12.447Z,17.30
2019-02-17T20:02:51.995Z,17.27
2019-02-17T20:05:23.869Z,17.93
2019-02-17T20:07:53.045Z,15.60
2019-02-17T20:10:22.419Z,15.93
2019-02-17T20:12:51.653Z,16.97
2019-02-17T20:15:22.148Z,15.93
2019-02-17T20:17:56.394Z,14.37
2019-02-17T20:20:26.261Z,17.00
2019-02-17T20:22:55.722Z,16.33
2019-02-17T20:25:25.382Z,19.33
2019-02-17T20:27:54.502Z,20.07
2019-02-17T20:30:23.911Z,21.00
2019-02-17T20:32:53.362Z,19.30
2019-02-17T20:35:23.074Z,20.00
2019-02-17T20:37:52.214Z,18.87
2019-02-17T20:40:21.593Z,21.30
2019-02-17T20:42:51.370Z,20.40
2019-02-17T20:45:20.511Z,19.73
2019-02-17T20:47:49.881Z,18.43
2019-02-17T20:50:19.038Z,17.93
2019-02-17T20:52:48.160Z,19.87
2019-02-17T20:55:17.614Z,19.57
2019-02-17T20:57:47.338Z,20.37
2019-02-17T21:00:16.859Z,21.20
2019-02-17T21:02:46.006Z,19.80
2019-02-17T21:05:15.210Z,19.70
2019-02-17T21:07:44.370Z,20.13
2019-02-17T21:10:13.629Z,19.90
2019-02-17T21:12:43.463Z,20.30
2019-02-17T21:15:13.902Z,21.20
2019-02-17T21:17:43.112Z,19.37
2019-02-17T21:20:12.334Z,21.50
2019-02-17T21:22:41.506Z,20.17
2019-02-17T21:25:10.963Z,22.67
2019-02-17T21:27:41.133Z,21.20
2019-02-17T21:30:11.654Z,18.53
2019-02-17T21:32:41.046Z,17.20
2019-02-17T21:35:11.370Z,16.73
2019-02-17T21:37:40.512Z,16.70
2019-02-17T21:40:10.577Z,16.20
2019-02-17T21:42:40.325Z,19.30
2019-02-17T21:45:10.826Z,16.40
2019-02-17T21:47:39.944Z,17.80
2019-02-17T21:50:10.039Z,23.07
2019-02-17T21:52:41.792Z,23.07
2019-02-17T21:55:10.642Z,22.67
2019-02-17T21:57:40.058Z,19.97
2019-02-17T22:00:12.373Z,23.13
2019-02-17T22:02:41.558Z,21.00
2019-02-17T22:05:10.831Z,20.13
2019-02-17T22:07:40.008Z,19.20
2019-02-17T22:10:10.145Z,18.77
2019-02-17T22:12:39.706Z,18.20
2019-02-17T22:15:10.722Z,18.20
2019-02-17T22:17:39.858Z,19.23
2019-02-17T22:20:09.486Z,20.50
2019-02-17T22:22:38.800Z,19.10
2019-02-17T22:25:08.427Z,20.07
2019-02-17T22:27:37.615Z,17.87
2019-02-17T22:30:08.026Z,15.73
2019-02-17T22:32:37.506Z,15.20
2019-02-17T22:35:06.718Z,14.83
2019-02-17T22:37:36.113Z,13.90
2019-02-17T22:40:05.453Z,11.90
2019-02-17T22:42:34.596Z,13.03
2019-02-17T22:45:03.794Z,11.77
2019-02-17T22:47:32.932Z,10.80
2019-02-17T22:50:02.092Z,10.20
2019-02-17T22:52:31.242Z,11.17
2019-02-17T22:55:00.378Z,10.17
2019-02-17T22:57:29.519Z,9.80
2019-02-17T22:59:58.690Z,10.50
2019-02-17T23:02:28.087Z,8.80
2019-02-17T23:04:57.328Z,10.13
2019-02-17T23:07:26.788Z,9.30
2019-02-17T23:09:55.922Z,8.63
2019-02-17T23:12:25.405Z,9.50
2019-02-17T23:14:54.536Z,9.10
2019-02-17T23:17:23.902Z,7.80
2019-02-17T23:19:53.152Z,8.07
2019-02-17T23:22:22.607Z,8.10
2019-02-17T23:24:52.102Z,7.20
2019-02-17T23:27:21.307Z,7.47
2019-02-17T23:29:50.519Z,7.43
2019-02-17T23:32:19.711Z,6.83
2019-02-17T23:34:49.234Z,5.90
2019-02-17T23:37:18.382Z,7.50
2019-02-17T23:39:47.582Z,7.73
2019-02-17T23:42:17.017Z,7.63
2019-02-17T23:44:46.141Z,8.10
2019-02-17T23:47:15.629Z,7.77
2019-02-17T23:49:44.760Z,7.40
2019-02-17T23:52:14.308Z,7.70
2019-02-17T23:54:43.437Z,6.30
2019-02-17T23:57:12.585Z,7.13
2019-02-17T23:59:41.694Z,7.77
